Airfield :
LOGIN :

Register | Disclaimer

   EN    FR    IT 

 










Legend :    VFR   Marginal VFR   IFR   Intensive IFR   Very Intensive IFR
Visi :
Ceiling :
>= 8 km
>= 3000ft
5 to 8 km
1000 to 3000 ft
1500m to 5 km
500 to 1000 ft
800 to 1500m
200 to 500 ft
< 800m
< 200 ft
Symbols :   Thunderstorms  Fog  Heavy snow  Heavy precipitations  Wind > 20 kt
SIGMETs :     Misc.  Thunderstorms  Icing  Turbulence  Mountain Waves  Volcanic Ashes







- Airport Elevation : 425 ft
- IATA code : DTM


EDLW - Dortmund

CURRENT METAR :
  • 261150Z 29007KT 240V360 9999 BKN035 20/11 Q1009

EXPIRED METARs :
  • 261120Z 28008KT 240V360 9999 FEW038 BKN058 20/11 Q1009
  • 261050Z 29006KT 230V340 9999 SCT031 19/11 Q1009
  • 261020Z 27008KT 230V350 9999 SCT024 19/12 Q1009
  • 260950Z 27007KT 230V320 9999 SCT021 17/13 Q1009
  • 260920Z 29007KT 230V020 9999 BKN020 18/13 Q1009

TAF TAF EDLW
Valid from the 26 at 12:00 until the 27 at 12:00 UTC


261100Z 2612/2712 28008KT 9999 SCT030
BECMG 2617/2620 21010KT
TEMPO 2703/2708 BKN012
TEMPO 2710/2712 24015G25KT
No reported NOTAMs for that airfield.



MET'MAP, your aeronautical weather chart ! - Copyright ORBIFLY December 2007 - Disclaimer

ORBIFLY MET'MAP TEAM :

Programming & Development : Alexandra Zaïnal
Concept & Development : Baudouin d'Aumeries
Co-Development & Prog : Marc-Olivier Méhu
Technical & hardware support : Manuel Goepfert

Contact : metmap@orbifly.com




SOURCES & CREDITS :

   NOAA